sensor_id;sensor_type;location;lat;lon;timestamp;P1;durP1;ratioP1;P2;durP2;ratioP2
17059;SDS011;8646;49.716;9.266;2024-03-08T00:02:28;25.67;;;12.90;;
17059;SDS011;8646;49.716;9.266;2024-03-08T00:05:31;27.47;;;12.07;;
17059;SDS011;8646;49.716;9.266;2024-03-08T00:08:35;24.20;;;13.43;;
17059;SDS011;8646;49.716;9.266;2024-03-08T00:11:38;28.73;;;13.27;;
17059;SDS011;8646;49.716;9.266;2024-03-08T00:14:41;28.43;;;14.03;;
17059;SDS011;8646;49.716;9.266;2024-03-08T00:17:44;26.10;;;13.60;;
17059;SDS011;8646;49.716;9.266;2024-03-08T00:20:49;24.83;;;12.83;;
17059;SDS011;8646;49.716;9.266;2024-03-08T00:23:53;30.10;;;14.03;;
17059;SDS011;8646;49.716;9.266;2024-03-08T00:26:56;28.00;;;14.60;;
17059;SDS011;8646;49.716;9.266;2024-03-08T00:30:00;26.73;;;13.23;;
17059;SDS011;8646;49.716;9.266;2024-03-08T00:33:03;26.10;;;13.97;;
17059;SDS011;8646;49.716;9.266;2024-03-08T00:36:06;25.03;;;12.90;;
17059;SDS011;8646;49.716;9.266;2024-03-08T00:39:11;24.40;;;12.73;;
17059;SDS011;8646;49.716;9.266;2024-03-08T00:42:14;29.20;;;12.90;;
17059;SDS011;8646;49.716;9.266;2024-03-08T00:45:17;28.43;;;13.90;;
17059;SDS011;8646;49.716;9.266;2024-03-08T00:48:20;25.00;;;11.77;;
17059;SDS011;8646;49.716;9.266;2024-03-08T00:51:23;26.77;;;13.70;;
17059;SDS011;8646;49.716;9.266;2024-03-08T00:54:27;25.73;;;13.67;;
17059;SDS011;8646;49.716;9.266;2024-03-08T00:57:31;28.77;;;13.20;;
17059;SDS011;8646;49.716;9.266;2024-03-08T01:00:35;25.83;;;12.53;;
17059;SDS011;8646;49.716;9.266;2024-03-08T01:03:40;29.20;;;13.93;;
17059;SDS011;8646;49.716;9.266;2024-03-08T01:06:44;25.43;;;13.73;;
17059;SDS011;8646;49.716;9.266;2024-03-08T01:09:50;25.40;;;12.80;;
17059;SDS011;8646;49.716;9.266;2024-03-08T01:12:52;26.27;;;12.73;;
17059;SDS011;8646;49.716;9.266;2024-03-08T01:15:58;28.03;;;13.87;;
17059;SDS011;8646;49.716;9.266;2024-03-08T01:19:00;25.40;;;12.83;;
17059;SDS011;8646;49.716;9.266;2024-03-08T01:22:04;23.73;;;11.97;;
17059;SDS011;8646;49.716;9.266;2024-03-08T01:25:09;27.60;;;13.80;;
17059;SDS011;8646;49.716;9.266;2024-03-08T01:28:12;25.40;;;13.40;;
17059;SDS011;8646;49.716;9.266;2024-03-08T01:31:14;28.03;;;13.63;;
17059;SDS011;8646;49.716;9.266;2024-03-08T01:34:17;23.73;;;13.07;;
17059;SDS011;8646;49.716;9.266;2024-03-08T01:37:20;30.37;;;13.90;;
17059;SDS011;8646;49.716;9.266;2024-03-08T01:40:24;32.87;;;14.83;;
17059;SDS011;8646;49.716;9.266;2024-03-08T01:43:27;28.13;;;14.37;;
17059;SDS011;8646;49.716;9.266;2024-03-08T01:46:31;31.03;;;14.43;;
17059;SDS011;8646;49.716;9.266;2024-03-08T01:49:34;31.07;;;14.97;;
17059;SDS011;8646;49.716;9.266;2024-03-08T01:52:36;27.83;;;12.40;;
17059;SDS011;8646;49.716;9.266;2024-03-08T01:55:41;27.83;;;13.73;;
17059;SDS011;8646;49.716;9.266;2024-03-08T01:58:44;30.47;;;14.20;;
17059;SDS011;8646;49.716;9.266;2024-03-08T02:01:48;27.03;;;13.90;;
17059;SDS011;8646;49.716;9.266;2024-03-08T02:04:53;28.97;;;13.87;;
17059;SDS011;8646;49.716;9.266;2024-03-08T02:07:55;31.83;;;14.70;;
17059;SDS011;8646;49.716;9.266;2024-03-08T02:11:00;31.77;;;15.30;;
17059;SDS011;8646;49.716;9.266;2024-03-08T02:14:03;27.63;;;13.53;;
17059;SDS011;8646;49.716;9.266;2024-03-08T02:17:08;30.33;;;13.83;;
17059;SDS011;8646;49.716;9.266;2024-03-08T02:20:10;26.70;;;13.70;;
17059;SDS011;8646;49.716;9.266;2024-03-08T02:23:16;28.10;;;14.20;;
17059;SDS011;8646;49.716;9.266;2024-03-08T02:26:19;28.97;;;13.73;;
17059;SDS011;8646;49.716;9.266;2024-03-08T02:29:22;26.50;;;13.40;;
17059;SDS011;8646;49.716;9.266;2024-03-08T02:32:26;29.07;;;14.27;;
17059;SDS011;8646;49.716;9.266;2024-03-08T02:35:29;27.83;;;14.07;;
17059;SDS011;8646;49.716;9.266;2024-03-08T02:38:33;32.87;;;15.30;;
17059;SDS011;8646;49.716;9.266;2024-03-08T02:41:36;29.20;;;14.57;;
17059;SDS011;8646;49.716;9.266;2024-03-08T02:44:42;33.70;;;14.20;;
17059;SDS011;8646;49.716;9.266;2024-03-08T02:47:45;30.30;;;14.40;;
17059;SDS011;8646;49.716;9.266;2024-03-08T02:50:47;33.87;;;14.97;;
17059;SDS011;8646;49.716;9.266;2024-03-08T02:53:53;30.33;;;14.67;;
17059;SDS011;8646;49.716;9.266;2024-03-08T02:56:56;31.37;;;14.57;;
17059;SDS011;8646;49.716;9.266;2024-03-08T02:59:59;28.70;;;14.17;;
17059;SDS011;8646;49.716;9.266;2024-03-08T03:03:02;30.80;;;14.10;;
17059;SDS011;8646;49.716;9.266;2024-03-08T03:06:06;32.97;;;15.97;;
17059;SDS011;8646;49.716;9.266;2024-03-08T03:09:10;32.97;;;14.57;;
17059;SDS011;8646;49.716;9.266;2024-03-08T03:12:13;29.40;;;14.20;;
17059;SDS011;8646;49.716;9.266;2024-03-08T03:15:16;31.13;;;15.03;;
17059;SDS011;8646;49.716;9.266;2024-03-08T03:18:19;29.23;;;14.43;;
17059;SDS011;8646;49.716;9.266;2024-03-08T03:21:27;30.80;;;14.93;;
17059;SDS011;8646;49.716;9.266;2024-03-08T03:24:34;31.07;;;14.80;;
17059;SDS011;8646;49.716;9.266;2024-03-08T03:27:39;32.80;;;15.33;;
17059;SDS011;8646;49.716;9.266;2024-03-08T03:30:44;32.73;;;15.77;;
17059;SDS011;8646;49.716;9.266;2024-03-08T03:33:47;33.33;;;14.60;;
17059;SDS011;8646;49.716;9.266;2024-03-08T03:36:53;31.53;;;16.10;;
17059;SDS011;8646;49.716;9.266;2024-03-08T03:39:58;33.47;;;16.00;;
17059;SDS011;8646;49.716;9.266;2024-03-08T03:43:03;30.93;;;15.23;;
17059;SDS011;8646;49.716;9.266;2024-03-08T03:46:06;34.13;;;15.70;;
17059;SDS011;8646;49.716;9.266;2024-03-08T03:49:09;32.57;;;16.13;;
17059;SDS011;8646;49.716;9.266;2024-03-08T03:52:12;35.10;;;15.93;;
17059;SDS011;8646;49.716;9.266;2024-03-08T03:55:16;35.23;;;14.27;;
17059;SDS011;8646;49.716;9.266;2024-03-08T03:58:19;30.20;;;14.40;;
17059;SDS011;8646;49.716;9.266;2024-03-08T04:01:23;30.60;;;15.67;;
17059;SDS011;8646;49.716;9.266;2024-03-08T04:04:26;30.83;;;14.97;;
17059;SDS011;8646;49.716;9.266;2024-03-08T04:07:30;34.10;;;16.30;;
17059;SDS011;8646;49.716;9.266;2024-03-08T04:10:34;36.57;;;15.47;;
17059;SDS011;8646;49.716;9.266;2024-03-08T04:13:37;32.60;;;15.97;;
17059;SDS011;8646;49.716;9.266;2024-03-08T04:16:39;34.37;;;15.27;;
17059;SDS011;8646;49.716;9.266;2024-03-08T04:19:42;33.00;;;15.23;;
17059;SDS011;8646;49.716;9.266;2024-03-08T04:22:45;32.77;;;15.30;;
17059;SDS011;8646;49.716;9.266;2024-03-08T04:25:50;33.60;;;16.10;;
17059;SDS011;8646;49.716;9.266;2024-03-08T04:28:53;38.00;;;17.53;;
17059;SDS011;8646;49.716;9.266;2024-03-08T04:31:56;37.73;;;17.27;;
17059;SDS011;8646;49.716;9.266;2024-03-08T04:34:59;31.27;;;15.13;;
17059;SDS011;8646;49.716;9.266;2024-03-08T04:38:05;36.83;;;17.63;;
17059;SDS011;8646;49.716;9.266;2024-03-08T04:41:09;36.10;;;16.20;;
17059;SDS011;8646;49.716;9.266;2024-03-08T04:44:12;35.77;;;15.47;;
17059;SDS011;8646;49.716;9.266;2024-03-08T04:47:15;32.97;;;16.80;;
17059;SDS011;8646;49.716;9.266;2024-03-08T04:50:19;33.97;;;15.67;;
17059;SDS011;8646;49.716;9.266;2024-03-08T04:53:22;36.17;;;16.50;;
17059;SDS011;8646;49.716;9.266;2024-03-08T04:56:26;33.00;;;16.57;;
17059;SDS011;8646;49.716;9.266;2024-03-08T04:59:29;36.00;;;16.73;;
17059;SDS011;8646;49.716;9.266;2024-03-08T05:02:31;33.73;;;16.03;;
17059;SDS011;8646;49.716;9.266;2024-03-08T05:05:34;33.60;;;16.10;;
17059;SDS011;8646;49.716;9.266;2024-03-08T05:08:37;33.80;;;15.60;;
17059;SDS011;8646;49.716;9.266;2024-03-08T05:11:42;35.33;;;16.70;;
17059;SDS011;8646;49.716;9.266;2024-03-08T05:14:46;34.07;;;16.13;;
17059;SDS011;8646;49.716;9.266;2024-03-08T05:17:51;36.33;;;16.70;;
17059;SDS011;8646;49.716;9.266;2024-03-08T05:20:53;34.23;;;16.00;;
17059;SDS011;8646;49.716;9.266;2024-03-08T05:23:57;54.40;;;21.07;;
17059;SDS011;8646;49.716;9.266;2024-03-08T05:27:11;39.63;;;17.63;;
17059;SDS011;8646;49.716;9.266;2024-03-08T05:30:27;48.97;;;19.47;;
17059;SDS011;8646;49.716;9.266;2024-03-08T05:33:30;41.50;;;19.30;;
17059;SDS011;8646;49.716;9.266;2024-03-08T05:36:33;36.13;;;17.53;;
17059;SDS011;8646;49.716;9.266;2024-03-08T05:39:36;38.37;;;18.07;;
17059;SDS011;8646;49.716;9.266;2024-03-08T05:42:40;39.57;;;17.37;;
17059;SDS011;8646;49.716;9.266;2024-03-08T05:45:43;40.87;;;18.57;;
17059;SDS011;8646;49.716;9.266;2024-03-08T05:48:45;35.30;;;16.73;;
17059;SDS011;8646;49.716;9.266;2024-03-08T05:51:49;37.23;;;17.43;;
17059;SDS011;8646;49.716;9.266;2024-03-08T05:54:52;42.70;;;18.83;;
17059;SDS011;8646;49.716;9.266;2024-03-08T05:57:56;36.57;;;17.27;;
17059;SDS011;8646;49.716;9.266;2024-03-08T06:00:59;36.50;;;17.40;;
17059;SDS011;8646;49.716;9.266;2024-03-08T06:04:02;39.23;;;16.80;;
17059;SDS011;8646;49.716;9.266;2024-03-08T06:07:06;35.73;;;17.37;;
17059;SDS011;8646;49.716;9.266;2024-03-08T06:10:13;38.77;;;16.10;;
17059;SDS011;8646;49.716;9.266;2024-03-08T06:13:20;35.63;;;16.80;;
17059;SDS011;8646;49.716;9.266;2024-03-08T06:16:23;35.60;;;17.30;;
17059;SDS011;8646;49.716;9.266;2024-03-08T06:19:26;39.80;;;17.10;;
17059;SDS011;8646;49.716;9.266;2024-03-08T06:22:28;36.37;;;17.00;;
17059;SDS011;8646;49.716;9.266;2024-03-08T06:25:31;38.10;;;16.83;;
17059;SDS011;8646;49.716;9.266;2024-03-08T06:28:37;39.67;;;18.03;;
17059;SDS011;8646;49.716;9.266;2024-03-08T06:31:40;41.03;;;17.63;;
17059;SDS011;8646;49.716;9.266;2024-03-08T06:34:43;44.37;;;20.03;;
17059;SDS011;8646;49.716;9.266;2024-03-08T06:37:46;42.30;;;19.83;;
17059;SDS011;8646;49.716;9.266;2024-03-08T06:40:48;38.50;;;17.87;;
17059;SDS011;8646;49.716;9.266;2024-03-08T06:43:54;39.67;;;17.57;;
17059;SDS011;8646;49.716;9.266;2024-03-08T06:46:59;35.97;;;17.93;;
17059;SDS011;8646;49.716;9.266;2024-03-08T06:50:02;35.83;;;17.33;;
17059;SDS011;8646;49.716;9.266;2024-03-08T06:53:05;38.50;;;18.90;;
17059;SDS011;8646;49.716;9.266;2024-03-08T06:56:08;39.30;;;16.67;;
17059;SDS011;8646;49.716;9.266;2024-03-08T06:59:12;37.53;;;17.27;;
17059;SDS011;8646;49.716;9.266;2024-03-08T07:02:14;39.67;;;17.90;;
17059;SDS011;8646;49.716;9.266;2024-03-08T07:05:18;38.57;;;16.73;;
17059;SDS011;8646;49.716;9.266;2024-03-08T07:08:20;34.83;;;16.03;;
17059;SDS011;8646;49.716;9.266;2024-03-08T07:11:24;35.33;;;16.67;;
17059;SDS011;8646;49.716;9.266;2024-03-08T07:14:28;36.67;;;18.00;;
17059;SDS011;8646;49.716;9.266;2024-03-08T07:17:32;38.27;;;17.83;;
17059;SDS011;8646;49.716;9.266;2024-03-08T07:20:35;42.10;;;19.03;;
17059;SDS011;8646;49.716;9.266;2024-03-08T07:23:38;27.20;;;13.50;;
17059;SDS011;8646;49.716;9.266;2024-03-08T07:27:14;35.03;;;17.53;;
17059;SDS011;8646;49.716;9.266;2024-03-08T07:30:18;33.60;;;16.53;;
17059;SDS011;8646;49.716;9.266;2024-03-08T07:33:39;38.63;;;18.23;;
17059;SDS011;8646;49.716;9.266;2024-03-08T07:36:42;32.87;;;14.50;;
17059;SDS011;8646;49.716;9.266;2024-03-08T07:39:45;36.73;;;16.93;;
17059;SDS011;8646;49.716;9.266;2024-03-08T07:42:48;34.43;;;17.40;;
17059;SDS011;8646;49.716;9.266;2024-03-08T07:45:52;35.70;;;16.00;;
17059;SDS011;8646;49.716;9.266;2024-03-08T07:48:56;33.83;;;16.27;;
17059;SDS011;8646;49.716;9.266;2024-03-08T07:51:59;37.60;;;17.27;;
17059;SDS011;8646;49.716;9.266;2024-03-08T07:55:02;35.83;;;16.07;;
17059;SDS011;8646;49.716;9.266;2024-03-08T07:58:05;35.60;;;17.80;;
17059;SDS011;8646;49.716;9.266;2024-03-08T08:01:15;36.50;;;17.93;;
17059;SDS011;8646;49.716;9.266;2024-03-08T08:04:18;32.80;;;15.33;;
17059;SDS011;8646;49.716;9.266;2024-03-08T08:07:25;35.27;;;17.73;;
17059;SDS011;8646;49.716;9.266;2024-03-08T08:10:28;28.60;;;14.70;;
17059;SDS011;8646;49.716;9.266;2024-03-08T08:13:31;32.57;;;15.83;;
17059;SDS011;8646;49.716;9.266;2024-03-08T08:16:35;35.33;;;16.63;;
17059;SDS011;8646;49.716;9.266;2024-03-08T08:19:40;33.07;;;15.97;;
17059;SDS011;8646;49.716;9.266;2024-03-08T08:22:43;14.57;;;6.70;;
17059;SDS011;8646;49.716;9.266;2024-03-08T08:25:46;37.10;;;16.27;;
17059;SDS011;8646;49.716;9.266;2024-03-08T08:28:51;28.57;;;13.70;;
17059;SDS011;8646;49.716;9.266;2024-03-08T08:31:55;31.20;;;14.87;;
17059;SDS011;8646;49.716;9.266;2024-03-08T08:35:03;37.40;;;16.90;;
17059;SDS011;8646;49.716;9.266;2024-03-08T08:38:06;27.27;;;12.93;;
17059;SDS011;8646;49.716;9.266;2024-03-08T08:41:10;36.23;;;16.80;;
17059;SDS011;8646;49.716;9.266;2024-03-08T08:44:13;35.70;;;15.87;;
17059;SDS011;8646;49.716;9.266;2024-03-08T08:47:18;31.07;;;15.13;;
17059;SDS011;8646;49.716;9.266;2024-03-08T08:50:22;39.07;;;17.17;;
17059;SDS011;8646;49.716;9.266;2024-03-08T08:53:25;32.60;;;13.30;;
17059;SDS011;8646;49.716;9.266;2024-03-08T08:56:29;32.50;;;15.77;;
17059;SDS011;8646;49.716;9.266;2024-03-08T08:59:31;24.37;;;12.33;;
17059;SDS011;8646;49.716;9.266;2024-03-08T09:02:36;29.43;;;13.53;;
17059;SDS011;8646;49.716;9.266;2024-03-08T09:05:39;23.53;;;10.77;;
17059;SDS011;8646;49.716;9.266;2024-03-08T09:08:46;27.90;;;13.57;;
17059;SDS011;8646;49.716;9.266;2024-03-08T09:11:50;30.33;;;14.93;;
17059;SDS011;8646;49.716;9.266;2024-03-08T09:14:54;32.83;;;15.17;;
17059;SDS011;8646;49.716;9.266;2024-03-08T09:17:58;26.80;;;10.73;;
17059;SDS011;8646;49.716;9.266;2024-03-08T09:21:01;29.10;;;14.00;;
17059;SDS011;8646;49.716;9.266;2024-03-08T09:24:04;32.53;;;15.17;;
17059;SDS011;8646;49.716;9.266;2024-03-08T09:27:07;34.60;;;15.27;;
17059;SDS011;8646;49.716;9.266;2024-03-08T09:30:11;32.03;;;16.13;;
17059;SDS011;8646;49.716;9.266;2024-03-08T09:33:16;32.43;;;15.97;;
17059;SDS011;8646;49.716;9.266;2024-03-08T09:36:20;31.27;;;15.93;;
17059;SDS011;8646;49.716;9.266;2024-03-08T09:39:23;30.20;;;15.43;;
17059;SDS011;8646;49.716;9.266;2024-03-08T09:42:28;27.13;;;13.67;;
17059;SDS011;8646;49.716;9.266;2024-03-08T09:45:31;28.57;;;14.43;;
17059;SDS011;8646;49.716;9.266;2024-03-08T09:48:39;27.93;;;14.07;;
17059;SDS011;8646;49.716;9.266;2024-03-08T09:51:43;30.47;;;15.27;;
17059;SDS011;8646;49.716;9.266;2024-03-08T09:54:45;31.47;;;16.90;;
17059;SDS011;8646;49.716;9.266;2024-03-08T09:57:48;28.80;;;13.53;;
17059;SDS011;8646;49.716;9.266;2024-03-08T10:01:05;22.17;;;11.90;;
17059;SDS011;8646;49.716;9.266;2024-03-08T10:04:09;19.60;;;10.37;;
17059;SDS011;8646;49.716;9.266;2024-03-08T10:07:12;31.80;;;16.07;;
17059;SDS011;8646;49.716;9.266;2024-03-08T10:10:15;30.17;;;15.60;;
17059;SDS011;8646;49.716;9.266;2024-03-08T10:13:18;28.57;;;13.87;;
17059;SDS011;8646;49.716;9.266;2024-03-08T10:16:21;30.40;;;14.23;;
17059;SDS011;8646;49.716;9.266;2024-03-08T10:19:27;27.90;;;15.40;;
17059;SDS011;8646;49.716;9.266;2024-03-08T10:22:31;28.67;;;14.97;;
17059;SDS011;8646;49.716;9.266;2024-03-08T10:25:34;24.17;;;12.77;;
17059;SDS011;8646;49.716;9.266;2024-03-08T10:28:37;26.20;;;13.80;;
17059;SDS011;8646;49.716;9.266;2024-03-08T10:31:40;30.03;;;15.13;;
17059;SDS011;8646;49.716;9.266;2024-03-08T10:34:46;29.53;;;14.67;;
17059;SDS011;8646;49.716;9.266;2024-03-08T10:37:52;27.63;;;14.77;;
17059;SDS011;8646;49.716;9.266;2024-03-08T10:41:00;31.83;;;15.60;;
17059;SDS011;8646;49.716;9.266;2024-03-08T10:44:10;28.83;;;13.97;;
17059;SDS011;8646;49.716;9.266;2024-03-08T10:47:24;33.27;;;15.00;;
17059;SDS011;8646;49.716;9.266;2024-03-08T10:50:33;20.53;;;11.30;;
17059;SDS011;8646;49.716;9.266;2024-03-08T10:53:37;30.97;;;13.97;;
17059;SDS011;8646;49.716;9.266;2024-03-08T10:56:43;28.73;;;14.47;;
17059;SDS011;8646;49.716;9.266;2024-03-08T10:59:47;27.53;;;13.00;;
17059;SDS011;8646;49.716;9.266;2024-03-08T11:02:51;35.47;;;15.70;;
17059;SDS011;8646;49.716;9.266;2024-03-08T11:05:56;23.77;;;11.30;;
17059;SDS011;8646;49.716;9.266;2024-03-08T11:09:02;27.00;;;13.53;;
17059;SDS011;8646;49.716;9.266;2024-03-08T11:12:21;27.20;;;14.37;;
17059;SDS011;8646;49.716;9.266;2024-03-08T11:15:27;22.03;;;11.97;;
17059;SDS011;8646;49.716;9.266;2024-03-08T11:18:32;28.63;;;14.73;;
17059;SDS011;8646;49.716;9.266;2024-03-08T11:21:37;26.83;;;14.63;;
17059;SDS011;8646;49.716;9.266;2024-03-08T11:24:41;31.20;;;13.93;;
17059;SDS011;8646;49.716;9.266;2024-03-08T11:27:48;29.57;;;14.70;;
17059;SDS011;8646;49.716;9.266;2024-03-08T11:34:27;25.23;;;13.07;;
17059;SDS011;8646;49.716;9.266;2024-03-08T11:37:33;25.37;;;12.77;;
17059;SDS011;8646;49.716;9.266;2024-03-08T11:40:37;22.63;;;10.77;;
17059;SDS011;8646;49.716;9.266;2024-03-08T11:43:41;25.90;;;13.03;;
17059;SDS011;8646;49.716;9.266;2024-03-08T11:46:44;26.27;;;13.33;;
17059;SDS011;8646;49.716;9.266;2024-03-08T11:49:49;28.63;;;13.07;;
17059;SDS011;8646;49.716;9.266;2024-03-08T11:52:53;27.67;;;13.60;;
17059;SDS011;8646;49.716;9.266;2024-03-08T11:56:07;26.50;;;12.97;;
17059;SDS011;8646;49.716;9.266;2024-03-08T11:59:11;24.87;;;12.83;;
17059;SDS011;8646;49.716;9.266;2024-03-08T12:02:14;24.03;;;12.33;;
17059;SDS011;8646;49.716;9.266;2024-03-08T12:05:17;22.17;;;11.47;;
17059;SDS011;8646;49.716;9.266;2024-03-08T12:08:24;17.10;;;8.00;;
17059;SDS011;8646;49.716;9.266;2024-03-08T12:11:29;24.60;;;13.23;;
17059;SDS011;8646;49.716;9.266;2024-03-08T12:14:34;17.23;;;8.23;;
17059;SDS011;8646;49.716;9.266;2024-03-08T12:17:38;26.33;;;14.47;;
17059;SDS011;8646;49.716;9.266;2024-03-08T12:20:41;28.13;;;14.10;;
17059;SDS011;8646;49.716;9.266;2024-03-08T12:24:02;24.70;;;13.50;;
17059;SDS011;8646;49.716;9.266;2024-03-08T12:27:17;25.97;;;13.03;;
17059;SDS011;8646;49.716;9.266;2024-03-08T12:30:21;21.57;;;10.43;;
17059;SDS011;8646;49.716;9.266;2024-03-08T12:33:25;21.23;;;9.53;;
17059;SDS011;8646;49.716;9.266;2024-03-08T12:36:28;25.40;;;13.60;;
17059;SDS011;8646;49.716;9.266;2024-03-08T12:39:32;14.73;;;7.47;;
17059;SDS011;8646;49.716;9.266;2024-03-08T12:42:35;25.57;;;13.30;;
17059;SDS011;8646;49.716;9.266;2024-03-08T12:45:38;25.63;;;13.90;;
17059;SDS011;8646;49.716;9.266;2024-03-08T12:48:41;24.03;;;11.90;;
17059;SDS011;8646;49.716;9.266;2024-03-08T12:51:48;22.00;;;10.83;;
17059;SDS011;8646;49.716;9.266;2024-03-08T12:54:52;18.27;;;9.77;;
17059;SDS011;8646;49.716;9.266;2024-03-08T12:57:56;24.80;;;12.20;;
17059;SDS011;8646;49.716;9.266;2024-03-08T13:01:02;25.07;;;14.10;;
17059;SDS011;8646;49.716;9.266;2024-03-08T13:04:06;18.53;;;8.13;;
17059;SDS011;8646;49.716;9.266;2024-03-08T13:07:13;24.97;;;13.77;;
17059;SDS011;8646;49.716;9.266;2024-03-08T13:10:19;24.80;;;13.50;;
17059;SDS011;8646;49.716;9.266;2024-03-08T13:13:24;22.13;;;12.53;;
17059;SDS011;8646;49.716;9.266;2024-03-08T13:16:27;24.03;;;12.57;;
17059;SDS011;8646;49.716;9.266;2024-03-08T13:19:31;18.73;;;8.33;;
17059;SDS011;8646;49.716;9.266;2024-03-08T13:22:35;21.70;;;11.53;;
17059;SDS011;8646;49.716;9.266;2024-03-08T13:25:40;25.77;;;12.10;;
17059;SDS011;8646;49.716;9.266;2024-03-08T13:28:45;21.63;;;11.20;;
17059;SDS011;8646;49.716;9.266;2024-03-08T13:31:50;22.30;;;11.50;;
17059;SDS011;8646;49.716;9.266;2024-03-08T13:34:54;21.03;;;11.10;;
17059;SDS011;8646;49.716;9.266;2024-03-08T13:37:57;19.67;;;10.37;;
17059;SDS011;8646;49.716;9.266;2024-03-08T13:41:01;20.27;;;9.50;;
17059;SDS011;8646;49.716;9.266;2024-03-08T13:44:04;22.03;;;11.20;;
17059;SDS011;8646;49.716;9.266;2024-03-08T13:47:07;19.03;;;9.87;;
17059;SDS011;8646;49.716;9.266;2024-03-08T13:50:13;16.60;;;8.00;;
17059;SDS011;8646;49.716;9.266;2024-03-08T13:53:23;13.37;;;7.03;;
17059;SDS011;8646;49.716;9.266;2024-03-08T13:56:27;20.87;;;10.87;;
17059;SDS011;8646;49.716;9.266;2024-03-08T13:59:32;18.33;;;9.90;;
17059;SDS011;8646;49.716;9.266;2024-03-08T14:02:36;18.20;;;9.27;;
17059;SDS011;8646;49.716;9.266;2024-03-08T14:05:40;22.43;;;11.27;;
17059;SDS011;8646;49.716;9.266;2024-03-08T14:08:44;20.13;;;9.73;;
17059;SDS011;8646;49.716;9.266;2024-03-08T14:11:48;22.57;;;11.20;;
17059;SDS011;8646;49.716;9.266;2024-03-08T14:14:50;18.33;;;9.70;;
17059;SDS011;8646;49.716;9.266;2024-03-08T14:17:53;17.80;;;9.80;;
17059;SDS011;8646;49.716;9.266;2024-03-08T14:20:57;18.20;;;9.13;;
17059;SDS011;8646;49.716;9.266;2024-03-08T14:23:59;20.40;;;9.57;;
17059;SDS011;8646;49.716;9.266;2024-03-08T14:27:04;13.27;;;6.43;;
17059;SDS011;8646;49.716;9.266;2024-03-08T14:30:10;18.60;;;9.00;;
17059;SDS011;8646;49.716;9.266;2024-03-08T14:33:13;14.13;;;8.07;;
17059;SDS011;8646;49.716;9.266;2024-03-08T14:36:16;16.90;;;8.87;;
17059;SDS011;8646;49.716;9.266;2024-03-08T14:39:20;19.90;;;10.00;;
17059;SDS011;8646;49.716;9.266;2024-03-08T14:42:29;23.83;;;9.30;;
17059;SDS011;8646;49.716;9.266;2024-03-08T14:45:31;19.30;;;9.37;;
17059;SDS011;8646;49.716;9.266;2024-03-08T14:48:35;16.07;;;9.50;;
17059;SDS011;8646;49.716;9.266;2024-03-08T14:51:38;17.57;;;9.40;;
17059;SDS011;8646;49.716;9.266;2024-03-08T14:54:41;18.20;;;10.17;;
17059;SDS011;8646;49.716;9.266;2024-03-08T14:57:45;15.47;;;8.37;;
17059;SDS011;8646;49.716;9.266;2024-03-08T15:00:48;16.93;;;7.80;;
17059;SDS011;8646;49.716;9.266;2024-03-08T15:03:57;16.80;;;8.77;;
17059;SDS011;8646;49.716;9.266;2024-03-08T15:07:04;11.07;;;5.87;;
17059;SDS011;8646;49.716;9.266;2024-03-08T15:10:07;15.77;;;9.10;;
17059;SDS011;8646;49.716;9.266;2024-03-08T15:13:13;13.27;;;7.53;;
17059;SDS011;8646;49.716;9.266;2024-03-08T15:16:24;12.23;;;5.47;;
17059;SDS011;8646;49.716;9.266;2024-03-08T15:19:27;13.47;;;7.80;;
17059;SDS011;8646;49.716;9.266;2024-03-08T15:22:30;14.50;;;8.00;;
17059;SDS011;8646;49.716;9.266;2024-03-08T15:25:32;13.73;;;7.73;;
17059;SDS011;8646;49.716;9.266;2024-03-08T15:28:38;13.03;;;6.70;;
17059;SDS011;8646;49.716;9.266;2024-03-08T15:31:41;10.57;;;5.10;;
17059;SDS011;8646;49.716;9.266;2024-03-08T15:34:44;13.30;;;7.47;;
17059;SDS011;8646;49.716;9.266;2024-03-08T15:37:47;13.63;;;7.60;;
17059;SDS011;8646;49.716;9.266;2024-03-08T15:40:50;12.30;;;6.10;;
17059;SDS011;8646;49.716;9.266;2024-03-08T15:43:54;10.90;;;5.80;;
17059;SDS011;8646;49.716;9.266;2024-03-08T15:46:58;14.07;;;7.47;;
17059;SDS011;8646;49.716;9.266;2024-03-08T15:50:02;14.07;;;7.33;;
17059;SDS011;8646;49.716;9.266;2024-03-08T15:53:05;15.77;;;7.07;;
17059;SDS011;8646;49.716;9.266;2024-03-08T15:56:08;16.30;;;8.73;;
17059;SDS011;8646;49.716;9.266;2024-03-08T15:59:12;12.97;;;6.93;;
17059;SDS011;8646;49.716;9.266;2024-03-08T16:02:15;14.93;;;7.27;;
17059;SDS011;8646;49.716;9.266;2024-03-08T16:05:20;11.53;;;6.50;;
17059;SDS011;8646;49.716;9.266;2024-03-08T16:08:23;11.10;;;6.33;;
17059;SDS011;8646;49.716;9.266;2024-03-08T16:11:26;16.43;;;5.90;;
17059;SDS011;8646;49.716;9.266;2024-03-08T16:14:33;13.63;;;6.70;;
17059;SDS011;8646;49.716;9.266;2024-03-08T16:17:39;13.03;;;5.77;;
17059;SDS011;8646;49.716;9.266;2024-03-08T16:20:42;12.10;;;6.10;;
17059;SDS011;8646;49.716;9.266;2024-03-08T16:23:45;12.30;;;5.90;;
17059;SDS011;8646;49.716;9.266;2024-03-08T16:26:49;7.10;;;3.80;;
17059;SDS011;8646;49.716;9.266;2024-03-08T16:29:55;7.43;;;4.27;;
17059;SDS011;8646;49.716;9.266;2024-03-08T16:32:57;9.20;;;4.90;;
17059;SDS011;8646;49.716;9.266;2024-03-08T16:36:00;10.23;;;5.07;;
17059;SDS011;8646;49.716;9.266;2024-03-08T16:39:03;8.13;;;3.40;;
17059;SDS011;8646;49.716;9.266;2024-03-08T16:42:06;10.10;;;5.27;;
17059;SDS011;8646;49.716;9.266;2024-03-08T16:45:11;11.70;;;5.97;;
17059;SDS011;8646;49.716;9.266;2024-03-08T16:48:15;11.50;;;5.43;;
17059;SDS011;8646;49.716;9.266;2024-03-08T16:51:18;10.67;;;5.50;;
17059;SDS011;8646;49.716;9.266;2024-03-08T16:54:21;9.87;;;4.97;;
17059;SDS011;8646;49.716;9.266;2024-03-08T16:57:23;9.73;;;5.50;;
17059;SDS011;8646;49.716;9.266;2024-03-08T17:00:28;11.47;;;5.60;;
17059;SDS011;8646;49.716;9.266;2024-03-08T17:03:31;10.93;;;6.37;;
17059;SDS011;8646;49.716;9.266;2024-03-08T17:06:41;14.67;;;6.83;;
17059;SDS011;8646;49.716;9.266;2024-03-08T17:09:44;20.03;;;9.53;;
17059;SDS011;8646;49.716;9.266;2024-03-08T17:12:47;24.50;;;13.07;;
17059;SDS011;8646;49.716;9.266;2024-03-08T17:15:52;13.97;;;7.03;;
17059;SDS011;8646;49.716;9.266;2024-03-08T17:18:54;11.57;;;5.83;;
17059;SDS011;8646;49.716;9.266;2024-03-08T17:21:57;11.10;;;5.90;;
17059;SDS011;8646;49.716;9.266;2024-03-08T17:25:01;12.43;;;6.67;;
17059;SDS011;8646;49.716;9.266;2024-03-08T17:28:06;10.80;;;6.53;;
17059;SDS011;8646;49.716;9.266;2024-03-08T17:31:13;10.93;;;5.67;;
17059;SDS011;8646;49.716;9.266;2024-03-08T17:34:16;10.97;;;5.80;;
17059;SDS011;8646;49.716;9.266;2024-03-08T17:37:19;13.27;;;5.93;;
17059;SDS011;8646;49.716;9.266;2024-03-08T17:40:22;11.17;;;5.87;;
17059;SDS011;8646;49.716;9.266;2024-03-08T17:43:26;12.53;;;6.40;;
17059;SDS011;8646;49.716;9.266;2024-03-08T17:46:30;12.27;;;6.33;;
17059;SDS011;8646;49.716;9.266;2024-03-08T17:49:34;10.10;;;5.40;;
17059;SDS011;8646;49.716;9.266;2024-03-08T17:52:41;17.67;;;7.97;;
17059;SDS011;8646;49.716;9.266;2024-03-08T17:55:44;17.00;;;8.63;;
17059;SDS011;8646;49.716;9.266;2024-03-08T17:58:47;17.57;;;8.40;;
17059;SDS011;8646;49.716;9.266;2024-03-08T18:01:54;19.33;;;7.70;;
17059;SDS011;8646;49.716;9.266;2024-03-08T18:04:58;20.07;;;8.87;;
17059;SDS011;8646;49.716;9.266;2024-03-08T18:08:02;19.47;;;9.10;;
17059;SDS011;8646;49.716;9.266;2024-03-08T18:11:06;15.00;;;7.50;;
17059;SDS011;8646;49.716;9.266;2024-03-08T18:14:09;19.37;;;7.97;;
17059;SDS011;8646;49.716;9.266;2024-03-08T18:17:16;15.90;;;7.67;;
17059;SDS011;8646;49.716;9.266;2024-03-08T18:20:19;15.00;;;7.83;;
17059;SDS011;8646;49.716;9.266;2024-03-08T18:23:27;16.70;;;7.40;;